createdAt,value
2023-03-05T00:02:26.593Z,88.01
2023-03-05T00:04:53.824Z,88.38
2023-03-05T00:07:21.031Z,88.78
2023-03-05T00:09:51.226Z,88.53
2023-03-05T00:12:18.962Z,88.89
2023-03-05T00:14:47.612Z,88.16
2023-03-05T00:17:14.914Z,88.66
2023-03-05T00:19:45.379Z,88.63
2023-03-05T00:22:15.908Z,88.12
2023-03-05T00:24:43.230Z,88.95
2023-03-05T00:27:10.593Z,88.43
2023-03-05T00:29:44.011Z,88.48
2023-03-05T00:32:21.843Z,88.19
2023-03-05T00:34:51.902Z,88.71
2023-03-05T00:37:20.034Z,88.30
2023-03-05T00:39:56.538Z,87.88
2023-03-05T00:42:26.547Z,88.55
2023-03-05T00:44:56.912Z,87.87
2023-03-05T00:47:25.625Z,87.56
2023-03-05T00:49:58.955Z,87.89
2023-03-05T00:52:29.540Z,88.47
2023-03-05T00:54:56.939Z,87.68
2023-03-05T00:57:27.308Z,88.19
2023-03-05T00:59:54.897Z,87.97
2023-03-05T01:02:22.314Z,87.41
2023-03-05T01:04:51.380Z,88.31
2023-03-05T01:07:18.825Z,88.22
2023-03-05T01:09:52.221Z,88.22
2023-03-05T01:12:19.461Z,88.00
2023-03-05T01:14:47.104Z,88.21
2023-03-05T01:17:14.427Z,88.18
2023-03-05T01:19:42.078Z,87.29
2023-03-05T01:22:10.690Z,88.14
2023-03-05T01:24:38.186Z,88.10
2023-03-05T01:27:05.716Z,88.09
2023-03-05T01:29:33.411Z,87.33
2023-03-05T01:32:02.459Z,87.46
2023-03-05T01:34:29.903Z,87.40
2023-03-05T01:36:57.211Z,87.28
2023-03-05T01:39:25.980Z,87.50
2023-03-05T01:41:53.424Z,87.15
2023-03-05T01:44:25.983Z,87.21
2023-03-05T01:46:53.332Z,88.01
2023-03-05T01:49:25.069Z,87.46
2023-03-05T01:51:58.876Z,87.58
2023-03-05T01:54:33.803Z,87.61
2023-03-05T01:57:07.588Z,87.45
2023-03-05T01:59:36.983Z,87.07
2023-03-05T02:02:08.115Z,87.20
2023-03-05T02:04:41.652Z,87.18
2023-03-05T02:07:10.324Z,87.70
2023-03-05T02:09:39.931Z,87.57
2023-03-05T02:12:08.819Z,87.78
2023-03-05T02:14:38.988Z,87.77
2023-03-05T02:17:06.456Z,87.24
2023-03-05T02:19:47.647Z,87.67
2023-03-05T02:22:18.073Z,87.37
2023-03-05T02:24:45.475Z,88.18
2023-03-05T02:27:14.136Z,87.92
2023-03-05T02:29:45.086Z,88.15
2023-03-05T02:32:13.867Z,87.25
2023-03-05T02:34:41.423Z,87.88
2023-03-05T02:37:10.366Z,88.28
2023-03-05T02:39:40.165Z,88.10
2023-03-05T02:42:08.559Z,87.26
2023-03-05T02:44:36.749Z,87.54
2023-03-05T02:47:04.264Z,87.94
2023-03-05T02:49:33.437Z,87.46
2023-03-05T02:52:00.642Z,88.24
2023-03-05T02:54:28.522Z,87.99
2023-03-05T02:56:57.335Z,88.27
2023-03-05T02:59:30.904Z,87.77
2023-03-05T03:02:01.138Z,87.52
2023-03-05T03:04:28.393Z,87.89
2023-03-05T03:06:55.822Z,87.86
2023-03-05T03:09:23.069Z,88.03
2023-03-05T03:11:50.434Z,88.38
2023-03-05T03:14:19.332Z,88.44
2023-03-05T03:16:49.592Z,87.84
2023-03-05T03:19:22.914Z,87.91
2023-03-05T03:21:55.104Z,88.06
2023-03-05T03:24:25.283Z,88.11
2023-03-05T03:27:05.133Z,87.95
2023-03-05T03:29:37.139Z,88.18
2023-03-05T03:32:13.736Z,88.00
2023-03-05T03:34:41.223Z,88.08
2023-03-05T03:37:09.058Z,87.75
2023-03-05T03:39:36.631Z,88.56
2023-03-05T03:42:04.382Z,87.83
2023-03-05T03:44:33.052Z,88.43
2023-03-05T03:47:00.530Z,88.28
2023-03-05T03:49:30.713Z,88.21
2023-03-05T03:52:01.005Z,87.88
2023-03-05T03:54:28.429Z,88.31
2023-03-05T03:57:01.374Z,87.95
2023-03-05T03:59:28.697Z,88.19
2023-03-05T04:01:59.921Z,88.67
2023-03-05T04:04:30.470Z,88.66
2023-03-05T04:06:57.999Z,88.82
2023-03-05T04:09:25.238Z,88.59
2023-03-05T04:11:52.492Z,88.41
2023-03-05T04:14:19.745Z,88.51
2023-03-05T04:16:47.161Z,89.12
2023-03-05T04:19:18.735Z,88.53
2023-03-05T04:21:46.097Z,88.83
2023-03-05T04:24:13.269Z,88.85
2023-03-05T04:27:02.133Z,89.34
2023-03-05T04:29:35.964Z,89.46
2023-03-05T04:32:06.242Z,89.42
2023-03-05T04:34:38.296Z,89.50
2023-03-05T04:37:05.806Z,89.81
2023-03-05T04:39:33.170Z,89.69
2023-03-05T04:42:03.032Z,89.74
2023-03-05T04:44:30.296Z,89.52
2023-03-05T04:47:00.660Z,89.84
2023-03-05T04:49:28.149Z,89.69
2023-03-05T04:51:57.756Z,89.70
2023-03-05T04:54:25.248Z,89.53
2023-03-05T04:56:55.316Z,89.58
2023-03-05T04:59:28.462Z,89.55
2023-03-05T05:02:11.362Z,89.59
2023-03-05T05:04:45.161Z,89.44
2023-03-05T05:07:14.004Z,89.63
2023-03-05T05:09:41.731Z,89.49
2023-03-05T05:12:10.586Z,89.89
2023-03-05T05:14:38.158Z,89.71
2023-03-05T05:17:05.822Z,89.36
2023-03-05T05:19:34.077Z,89.96
2023-03-05T05:22:02.282Z,89.47
2023-03-05T05:24:33.665Z,89.89
2023-03-05T05:27:01.178Z,89.23
2023-03-05T05:29:37.361Z,89.54
2023-03-05T05:32:07.875Z,89.37
2023-03-05T05:34:35.125Z,89.57
2023-03-05T05:37:05.597Z,89.38
2023-03-05T05:39:38.537Z,88.50
2023-03-05T05:42:08.665Z,89.20
2023-03-05T05:44:35.870Z,88.67
2023-03-05T05:47:06.228Z,88.34
2023-03-05T05:49:45.538Z,88.67
2023-03-05T05:52:15.429Z,88.35
2023-03-05T05:54:43.972Z,88.38
2023-03-05T05:57:34.890Z,88.28
2023-03-05T06:00:02.610Z,87.53
2023-03-05T06:02:41.889Z,87.77
2023-03-05T06:05:13.799Z,87.68
2023-03-05T06:07:44.268Z,87.15
2023-03-05T06:10:22.007Z,88.02
2023-03-05T06:12:49.282Z,87.33
2023-03-05T06:15:16.798Z,87.70
2023-03-05T06:17:44.091Z,87.78
2023-03-05T06:20:12.482Z,87.11
2023-03-05T06:22:40.887Z,88.05
2023-03-05T06:25:09.669Z,87.32
2023-03-05T06:27:38.682Z,87.41
2023-03-05T06:30:10.613Z,87.45
2023-03-05T06:32:38.604Z,87.87
2023-03-05T06:35:09.228Z,87.95
2023-03-05T06:37:38.730Z,87.85
2023-03-05T06:40:10.302Z,87.16
2023-03-05T06:42:38.973Z,87.75
2023-03-05T06:45:07.592Z,87.23
2023-03-05T06:47:35.280Z,87.76
2023-03-05T06:50:02.724Z,87.40
2023-03-05T06:52:30.580Z,88.01
2023-03-05T06:54:57.795Z,87.81
2023-03-05T06:57:24.978Z,87.75
2023-03-05T06:59:53.596Z,88.12
2023-03-05T07:02:24.057Z,87.86
2023-03-05T07:04:51.415Z,87.63
2023-03-05T07:07:21.675Z,87.72
2023-03-05T07:09:54.981Z,88.12
2023-03-05T07:12:22.352Z,87.82
2023-03-05T07:14:49.701Z,88.28
2023-03-05T07:17:18.576Z,87.90
2023-03-05T07:19:45.872Z,88.01
2023-03-05T07:22:18.850Z,87.15
2023-03-05T07:24:51.907Z,87.37
2023-03-05T07:27:19.117Z,88.08
2023-03-05T07:29:51.727Z,88.00
2023-03-05T07:32:20.527Z,87.31
2023-03-05T07:34:50.393Z,87.73
2023-03-05T07:37:17.623Z,87.34
2023-03-05T07:39:47.130Z,87.58
2023-03-05T07:42:14.782Z,87.34
2023-03-05T07:44:57.652Z,87.90
2023-03-05T07:47:26.369Z,87.71
2023-03-05T07:49:53.633Z,87.33
2023-03-05T07:52:21.038Z,87.40
2023-03-05T07:54:50.554Z,88.04
2023-03-05T07:57:18.189Z,87.93
2023-03-05T07:59:45.599Z,88.17
2023-03-05T08:02:16.824Z,87.15
2023-03-05T08:04:48.238Z,87.82
2023-03-05T08:07:16.081Z,87.85
2023-03-05T08:09:58.570Z,88.16
2023-03-05T08:12:25.914Z,87.36
2023-03-05T08:14:53.304Z,87.75
2023-03-05T08:17:20.774Z,88.13
2023-03-05T08:19:49.596Z,87.67
2023-03-05T08:22:17.577Z,88.27
2023-03-05T08:24:45.219Z,87.74
2023-03-05T08:27:12.382Z,87.83
2023-03-05T08:29:39.637Z,87.86
2023-03-05T08:32:07.228Z,87.75
2023-03-05T08:34:34.610Z,88.12
2023-03-05T08:37:03.334Z,88.65
2023-03-05T08:39:30.485Z,88.21
2023-03-05T08:42:04.475Z,88.62
2023-03-05T08:44:31.970Z,88.43
2023-03-05T08:46:59.222Z,88.70
2023-03-05T08:49:26.736Z,88.42
2023-03-05T08:51:54.069Z,87.79
2023-03-05T08:54:22.679Z,88.92
2023-03-05T08:56:50.380Z,87.91
2023-03-05T08:59:17.588Z,88.65
2023-03-05T09:01:44.897Z,88.32
2023-03-05T09:04:12.208Z,87.99
2023-03-05T09:06:40.664Z,88.37
2023-03-05T09:09:08.290Z,89.04
2023-03-05T09:11:43.001Z,88.44
2023-03-05T09:14:10.708Z,87.90
2023-03-05T09:16:40.586Z,88.06
2023-03-05T09:19:12.900Z,88.46
2023-03-05T09:21:40.278Z,88.54
2023-03-05T09:24:08.007Z,88.66
2023-03-05T09:26:35.316Z,87.86
2023-03-05T09:29:04.206Z,88.27
2023-03-05T09:31:31.410Z,88.26
2023-03-05T09:33:58.970Z,88.29
2023-03-05T09:36:29.470Z,87.91
2023-03-05T09:38:57.375Z,88.08
2023-03-05T09:41:43.126Z,88.01
2023-03-05T09:44:29.631Z,87.39
2023-03-05T09:47:08.787Z,87.16
2023-03-05T09:49:45.243Z,87.47
2023-03-05T09:52:16.917Z,87.06
2023-03-05T09:54:47.600Z,87.55
2023-03-05T09:57:19.338Z,87.45
2023-03-05T09:59:52.093Z,87.14
2023-03-05T10:02:24.687Z,87.46
2023-03-05T10:05:00.093Z,87.14
2023-03-05T10:07:31.824Z,86.44
2023-03-05T10:10:02.104Z,86.58
2023-03-05T10:12:42.484Z,86.87
2023-03-05T10:15:15.041Z,86.97
2023-03-05T10:18:04.504Z,86.94
2023-03-05T10:20:45.485Z,86.80
2023-03-05T10:23:49.298Z,87.36
2023-03-05T10:26:35.711Z,87.18
2023-03-05T10:29:17.163Z,87.32
2023-03-05T10:31:55.791Z,86.95
2023-03-05T10:34:44.579Z,86.67
2023-03-05T10:37:28.279Z,86.95
2023-03-05T10:40:09.920Z,86.95
2023-03-05T10:42:48.365Z,87.51
2023-03-05T10:45:18.882Z,87.16
2023-03-05T10:47:52.376Z,86.67
2023-03-05T10:50:22.894Z,87.41
2023-03-05T10:52:57.172Z,86.80
2023-03-05T10:55:27.399Z,86.93
2023-03-05T10:57:55.793Z,86.97
2023-03-05T11:00:25.222Z,86.99
2023-03-05T11:03:05.500Z,86.10
2023-03-05T11:05:50.088Z,86.72
2023-03-05T11:08:27.246Z,86.29
2023-03-05T11:11:13.747Z,85.94
2023-03-05T11:13:52.227Z,86.37
2023-03-05T11:16:24.522Z,85.97
2023-03-05T11:19:17.660Z,85.87
2023-03-05T11:21:46.227Z,86.34
2023-03-05T11:24:15.849Z,86.18
2023-03-05T11:26:51.385Z,86.35
2023-03-05T11:29:25.308Z,85.66
2023-03-05T11:31:53.453Z,86.21
2023-03-05T11:34:31.676Z,85.68
2023-03-05T11:37:06.684Z,86.28
2023-03-05T11:39:37.439Z,84.99
2023-03-05T11:42:07.437Z,85.10
2023-03-05T11:44:44.115Z,85.04
2023-03-05T11:47:21.796Z,85.29
2023-03-05T11:49:54.591Z,85.19
2023-03-05T11:52:24.464Z,85.19
2023-03-05T11:55:02.733Z,85.65
2023-03-05T11:57:39.516Z,85.57
2023-03-05T12:00:13.188Z,84.31
2023-03-05T12:02:40.576Z,85.25
2023-03-05T12:05:14.641Z,84.95
2023-03-05T12:07:48.219Z,85.06
2023-03-05T12:10:18.747Z,84.29
2023-03-05T12:12:51.837Z,84.78
2023-03-05T12:15:47.727Z,84.15
2023-03-05T12:18:21.997Z,84.28
2023-03-05T12:21:00.497Z,84.39
2023-03-05T12:23:28.321Z,84.70
2023-03-05T12:25:57.910Z,84.47
2023-03-05T12:28:54.355Z,84.56
2023-03-05T12:31:40.211Z,84.79
2023-03-05T12:34:50.594Z,84.81
2023-03-05T12:37:59.517Z,84.26
2023-03-05T12:40:30.603Z,84.29
2023-03-05T12:42:59.695Z,83.92
2023-03-05T12:45:32.589Z,84.51
2023-03-05T12:48:37.184Z,84.03
2023-03-05T12:51:04.726Z,83.42
2023-03-05T12:53:32.023Z,84.10
2023-03-05T12:56:13.523Z,84.35
2023-03-05T12:58:44.515Z,84.08
2023-03-05T13:01:27.756Z,83.40
2023-03-05T13:03:58.588Z,84.29
2023-03-05T13:06:28.971Z,83.84
2023-03-05T13:08:58.691Z,83.74
2023-03-05T13:11:29.646Z,83.35
2023-03-05T13:13:58.270Z,83.27
2023-03-05T13:16:30.414Z,83.21
2023-03-05T13:19:01.507Z,83.04
2023-03-05T13:21:30.878Z,83.43
2023-03-05T13:24:05.500Z,82.69
2023-03-05T13:26:41.807Z,82.33
2023-03-05T13:29:13.586Z,82.80
2023-03-05T13:31:45.862Z,82.69
2023-03-05T13:34:18.618Z,82.09
2023-03-05T13:36:53.545Z,81.99
2023-03-05T13:39:30.622Z,81.68
2023-03-05T13:42:02.667Z,81.98
2023-03-05T13:44:31.204Z,82.37
2023-03-05T13:47:10.640Z,82.00
2023-03-05T13:49:44.237Z,82.22
2023-03-05T13:52:12.068Z,81.57
2023-03-05T13:54:45.388Z,81.33
2023-03-05T13:57:40.198Z,81.18
2023-03-05T14:00:33.880Z,81.86
2023-03-05T14:03:11.206Z,81.94
2023-03-05T14:05:44.778Z,81.66
2023-03-05T14:08:21.722Z,81.74
2023-03-05T14:10:53.786Z,82.19
2023-03-05T14:13:25.076Z,81.49
2023-03-05T14:16:17.425Z,81.37
2023-03-05T14:18:55.652Z,82.05
2023-03-05T14:21:47.318Z,81.31
2023-03-05T14:24:23.550Z,81.47
2023-03-05T14:26:56.687Z,80.89
2023-03-05T14:29:27.335Z,81.65
2023-03-05T14:31:57.398Z,81.75
2023-03-05T14:34:30.069Z,81.29
2023-03-05T14:37:00.640Z,81.37
2023-03-05T14:39:38.157Z,81.70
2023-03-05T14:42:30.543Z,81.09
2023-03-05T14:45:00.981Z,80.88
2023-03-05T14:47:29.067Z,81.69
2023-03-05T14:49:56.382Z,81.05
2023-03-05T14:52:25.082Z,81.51
2023-03-05T14:54:54.067Z,81.23
2023-03-05T14:57:23.597Z,81.70
2023-03-05T14:59:51.253Z,81.70
2023-03-05T15:02:22.599Z,81.04
2023-03-05T15:04:50.012Z,80.76
2023-03-05T15:07:21.081Z,80.95
2023-03-05T15:09:48.310Z,81.25
2023-03-05T15:12:16.622Z,81.08
2023-03-05T15:14:44.328Z,81.34
2023-03-05T15:17:19.355Z,81.18
2023-03-05T15:19:48.583Z,80.62
2023-03-05T15:22:16.696Z,80.72
2023-03-05T15:24:44.530Z,80.26
2023-03-05T15:27:12.506Z,81.00
2023-03-05T15:29:39.772Z,80.98
2023-03-05T15:32:10.029Z,80.67
2023-03-05T15:34:37.547Z,81.01
2023-03-05T15:37:08.230Z,80.17
2023-03-05T15:39:41.290Z,80.89
2023-03-05T15:42:26.795Z,80.40
2023-03-05T15:45:12.232Z,80.16
2023-03-05T15:47:39.547Z,80.29
2023-03-05T15:50:08.556Z,80.00
2023-03-05T15:52:39.721Z,80.06
2023-03-05T15:55:10.679Z,80.40
2023-03-05T15:57:43.209Z,80.33
2023-03-05T16:03:00.916Z,80.97
2023-03-05T16:05:40.345Z,80.12
2023-03-05T16:08:09.432Z,80.42
2023-03-05T16:10:43.934Z,80.92
2023-03-05T16:13:14.371Z,80.33
2023-03-05T16:15:43.305Z,81.25
2023-03-05T16:18:31.720Z,80.72
2023-03-05T16:21:05.308Z,81.16
2023-03-05T16:23:40.309Z,80.60
2023-03-05T16:26:09.172Z,81.30
2023-03-05T16:28:45.677Z,81.04
2023-03-05T16:31:15.512Z,80.56
2023-03-05T16:33:43.100Z,80.94
2023-03-05T16:36:22.818Z,81.35
2023-03-05T16:38:53.286Z,81.57
2023-03-05T16:41:24.392Z,81.21
2023-03-05T16:43:53.646Z,81.51
2023-03-05T16:46:21.306Z,81.06
2023-03-05T16:48:48.579Z,81.18
2023-03-05T16:51:16.232Z,81.43
2023-03-05T16:53:48.927Z,80.63
2023-03-05T16:56:21.125Z,81.46
2023-03-05T16:58:49.744Z,81.03
2023-03-05T17:01:22.361Z,81.54
2023-03-05T17:03:53.784Z,81.39
2023-03-05T17:06:23.393Z,81.14
2023-03-05T17:08:52.060Z,80.87
2023-03-05T17:11:21.815Z,81.86
2023-03-05T17:13:49.407Z,81.63
2023-03-05T17:16:19.651Z,81.51
2023-03-05T17:18:47.664Z,81.78
2023-03-05T17:21:15.556Z,82.01
2023-03-05T17:23:45.364Z,81.03
2023-03-05T17:26:15.457Z,82.07
2023-03-05T17:28:54.583Z,81.65
2023-03-05T17:31:22.253Z,81.92
2023-03-05T17:33:56.135Z,81.73
2023-03-05T17:36:24.424Z,82.03
2023-03-05T17:38:53.129Z,81.29
2023-03-05T17:41:20.670Z,82.42
2023-03-05T17:43:48.040Z,82.36
2023-03-05T17:46:17.049Z,81.92
2023-03-05T17:48:44.416Z,82.16
2023-03-05T17:51:14.150Z,81.90
2023-03-05T17:53:41.437Z,82.26
2023-03-05T17:56:09.945Z,82.12
2023-03-05T17:58:37.897Z,81.77
2023-03-05T18:01:06.909Z,81.48
2023-03-05T18:03:36.682Z,82.29
2023-03-05T18:06:05.088Z,82.43
2023-03-05T18:08:32.955Z,81.88
2023-03-05T18:11:00.407Z,81.94
2023-03-05T18:13:27.648Z,81.40
2023-03-05T18:15:58.794Z,81.69
2023-03-05T18:18:26.390Z,82.32
2023-03-05T18:20:55.614Z,81.75
2023-03-05T18:23:25.755Z,82.30
2023-03-05T18:25:53.156Z,81.56
2023-03-05T18:28:20.795Z,82.18
2023-03-05T18:30:48.277Z,81.60
2023-03-05T18:33:19.063Z,82.33
2023-03-05T18:35:47.105Z,81.84
2023-03-05T18:38:15.811Z,81.87
2023-03-05T18:40:43.878Z,81.72
2023-03-05T18:43:11.300Z,82.23
2023-03-05T18:45:38.663Z,82.55
2023-03-05T18:48:06.323Z,81.84
2023-03-05T18:50:33.812Z,82.24
2023-03-05T18:53:01.110Z,82.74
2023-03-05T18:55:31.003Z,82.44
2023-03-05T18:57:58.469Z,82.01
2023-03-05T19:00:27.914Z,82.71
2023-03-05T19:02:55.938Z,82.87
2023-03-05T19:05:26.285Z,82.07
2023-03-05T19:07:54.328Z,82.31
2023-03-05T19:10:22.838Z,82.39
2023-03-05T19:13:39.811Z,82.48
2023-03-05T19:16:10.661Z,82.67
2023-03-05T19:19:25.572Z,82.86
2023-03-05T19:21:55.148Z,82.63
2023-03-05T19:24:23.518Z,82.20
2023-03-05T19:26:55.418Z,82.68
2023-03-05T19:29:24.085Z,82.88
2023-03-05T19:31:53.830Z,82.74
2023-03-05T19:34:21.625Z,83.32
2023-03-05T19:36:48.928Z,83.21
2023-03-05T19:39:16.410Z,83.25
2023-03-05T19:41:43.606Z,82.97
2023-03-05T19:44:12.147Z,83.35
2023-03-05T19:46:41.908Z,82.92
2023-03-05T19:49:11.088Z,83.06
2023-03-05T19:51:40.347Z,83.23
2023-03-05T19:54:07.821Z,83.08
2023-03-05T19:56:37.976Z,83.06
2023-03-05T19:59:05.529Z,83.50
2023-03-05T20:01:33.309Z,83.69
2023-03-05T20:04:02.676Z,83.37
2023-03-05T20:06:33.189Z,84.00
2023-03-05T20:09:00.656Z,83.37
2023-03-05T20:11:28.521Z,83.72
2023-03-05T20:13:56.535Z,83.94
2023-03-05T20:16:25.913Z,83.78
2023-03-05T20:18:55.134Z,83.95
2023-03-05T20:21:25.089Z,84.07
2023-03-05T20:23:55.127Z,84.07
2023-03-05T20:26:25.908Z,84.15
2023-03-05T20:28:54.307Z,85.02
2023-03-05T20:31:23.548Z,84.33
2023-03-05T20:33:51.186Z,85.06
2023-03-05T20:36:18.739Z,84.45
2023-03-05T20:38:46.623Z,84.42
2023-03-05T20:41:17.457Z,84.84
2023-03-05T20:44:33.232Z,84.63
2023-03-05T20:47:30.348Z,84.86
2023-03-05T20:49:57.986Z,85.14
2023-03-05T20:53:05.824Z,84.84
2023-03-05T20:55:33.171Z,85.38
2023-03-05T20:58:00.851Z,84.95
2023-03-05T21:00:28.374Z,85.26
2023-03-05T21:02:56.448Z,85.45
2023-03-05T21:05:26.473Z,85.34
2023-03-05T21:07:53.955Z,85.81
2023-03-05T21:10:23.503Z,85.96
2023-03-05T21:12:51.974Z,85.09
2023-03-05T21:15:22.243Z,85.58
2023-03-05T21:17:49.928Z,85.30
2023-03-05T21:20:20.731Z,85.63
2023-03-05T21:22:48.587Z,85.52
2023-03-05T21:25:23.136Z,85.51
2023-03-05T21:27:55.645Z,85.63
2023-03-05T21:30:31.688Z,85.55
2023-03-05T21:33:10.436Z,86.16
2023-03-05T21:35:41.466Z,86.25
2023-03-05T21:38:12.491Z,85.58
2023-03-05T21:40:49.230Z,86.32
2023-03-05T21:43:20.466Z,86.61
2023-03-05T21:45:49.190Z,85.57
2023-03-05T21:48:17.075Z,86.11
2023-03-05T21:50:46.068Z,85.96
2023-03-05T21:53:14.549Z,86.56
2023-03-05T21:56:25.515Z,85.85
2023-03-05T21:58:54.624Z,86.70
2023-03-05T22:01:22.232Z,86.36
2023-03-05T22:03:50.001Z,86.02
2023-03-05T22:06:19.248Z,86.11
2023-03-05T22:08:49.339Z,86.80
2023-03-05T22:11:18.234Z,87.09
2023-03-05T22:13:45.666Z,87.03
2023-03-05T22:16:21.386Z,86.58
2023-03-05T22:18:48.760Z,87.11
2023-03-05T22:21:18.477Z,87.09
2023-03-05T22:23:45.995Z,86.62
2023-03-05T22:26:13.826Z,87.18
2023-03-05T22:28:42.606Z,86.37
2023-03-05T22:31:10.586Z,86.82
2023-03-05T22:33:39.364Z,86.85
2023-03-05T22:36:11.487Z,86.69
2023-03-05T22:38:38.965Z,87.02
2023-03-05T22:41:07.705Z,87.18
2023-03-05T22:43:35.621Z,87.28
2023-03-05T22:46:10.126Z,87.23
2023-03-05T22:48:37.376Z,86.99
2023-03-05T22:51:06.820Z,87.39
2023-03-05T22:53:34.282Z,87.17
2023-03-05T22:56:06.324Z,86.45
2023-03-05T22:58:33.578Z,87.38
2023-03-05T23:01:00.876Z,86.78
2023-03-05T23:03:28.305Z,86.85
2023-03-05T23:06:07.897Z,87.19
2023-03-05T23:08:36.800Z,87.50
2023-03-05T23:11:09.138Z,87.74
2023-03-05T23:13:36.384Z,87.59
2023-03-05T23:16:04.412Z,87.10
2023-03-05T23:18:32.400Z,86.96
2023-03-05T23:20:59.763Z,87.45
2023-03-05T23:23:27.049Z,87.37
2023-03-05T23:25:55.984Z,87.68
2023-03-05T23:28:23.342Z,87.38
2023-03-05T23:30:50.675Z,86.96
2023-03-05T23:33:20.308Z,87.38
2023-03-05T23:35:52.060Z,87.40
2023-03-05T23:38:20.006Z,87.70
2023-03-05T23:40:49.875Z,88.04
2023-03-05T23:43:19.643Z,87.75
2023-03-05T23:45:49.040Z,87.55
2023-03-05T23:48:17.419Z,87.76
2023-03-05T23:50:48.062Z,88.07
2023-03-05T23:53:17.552Z,88.19
2023-03-05T23:55:45.020Z,88.24
2023-03-05T23:58:12.736Z,88.21
